Lake Levels Lake Levels   »   United States   »   Texas
LAKES RIVERS MARINAS NEWS HOUSES EVENTS MAPS
1,681 Lakes:
Lake Store

Lake Levels in Texas, United States

Lake Name Current
Level
Full Pool +/-
Full Pool
Reading
Date - Time
Alan Henry (TX) 2,217.64 2,224.00 -6.36 1/24/2020  12:30 AM
Amistad (TX) 1,086.55 1,117.00 -30.45 1/24/2020  12:15 AM
Amon Carter (TX) 918.99 920.00 -1.01 1/24/2020  12:00 AM
Aquilla (TX) 534.67 537.50 -2.83 1/24/2020  12:30 AM
Arlington (TX) 550.17 550.00 0.17 1/24/2020  12:15 AM
Arrowhead (TX) 924.11 926.00 -1.89 1/24/2020  2:00 AM
Athens (TX) 440.23 440.00 0.23 1/24/2020  12:30 AM
Austin (TX) 491.87 492.80 -0.93 1/24/2020  2:00 AM
Bardwell (TX) 418.80 421.00 -2.20 1/24/2020  2:30 AM
Belton (TX) 591.02 594.00 -2.98 1/24/2020  2:00 AM
Benbrook (TX) 688.16 694.00 -5.84 1/24/2020  2:00 AM
Bob Sandlin (TX) 337.64 337.50 0.14 1/23/2020  9:50 AM
Bonham (TX) 565.07 565.00 0.07 1/24/2020  1:00 AM
Brady Creek (TX) 1,740.81 1,743.00 -2.19 1/24/2020  2:45 AM
Bridgeport (TX) 831.41 836.00 -4.59 1/24/2020  2:00 AM
Brownwood (TX) 1,421.03 1,425.00 -3.97 1/24/2020  2:30 AM
Buchanan (TX) 1,016.45 1,020.50 -4.05 1/23/2020  10:05 AM
Caddo (LA TX) 169.80 168.50 1.30 1/23/2020  6:00 AM
Canyon (TX) 906.01 909.00 -2.99 1/24/2020  12:15 AM
Cedar Creek (TX) 319.93 322.00 -2.07 1/24/2020  1:45 AM
Champion Creek (TX) 2,072.38 2,083.00 -10.62 1/23/2020  9:41 AM
Cherokee (TX) 280.40 280.00 0.40 1/24/2020  1:45 AM
Choke Canyon (TX) 202.66 220.50 -17.84 1/23/2020  7:30 AM
Cisco (TX) 1,519.29 1,520.00 -0.71 1/24/2020  8:30 AM
Coleman (TX) 1,714.59 1,718.00 -3.41 1/24/2020  12:30 AM
Coleto Creek (TX) 94.37 98.28 -3.91 1/24/2020  12:00 AM
Colorado City (TX) 2,056.28 2,070.20 -13.92 1/23/2020  9:41 AM
Conroe (TX) 199.11 201.00 -1.89 1/24/2020  2:45 AM
Corpus Christi (TX) 90.48 94.00 -3.52 1/23/2020  8:55 AM
Cypress Springs (TX) 179.95 378.00 -198.05 1/23/2020  9:50 AM
E. V. Spence (TX) 1,861.31 1,898.00 -36.69 1/24/2020  12:00 AM
Eagle Mountain (TX) 649.17 649.00 0.17 1/24/2020  2:00 AM
Falcon (TX) 264.14 301.20 -37.06 1/24/2020  1:15 AM
Fork (TX) 401.36 403.00 -1.64 1/24/2020  2:30 AM
Georgetown (TX) 781.45 791.00 -9.55 1/24/2020  1:00 AM
Graham (TX) 1,072.24 1,075.00 -2.76 1/24/2020  2:00 AM
Granbury (TX) 692.68 693.00 -0.32 1/24/2020  2:30 AM
Granger (TX) 504.53 504.00 0.53 1/24/2020  2:00 AM
Grapevine (TX) 539.51 535.00 4.51 1/24/2020  2:45 AM
Hords Creek (TX) 1,896.02 1,900.00 -3.98 1/24/2020  12:30 AM
Houston (TX) 41.06 41.70 -0.64 1/24/2020  2:30 AM
Hubbard Creek (TX) 1,180.69 1,183.00 -2.31 1/24/2020  2:15 AM
Hubert M Moss (TX) 715.31 715.00 0.31 1/24/2020  2:15 AM
Inks (TX) 879.28 886.90 -7.62 1/24/2020  1:00 AM
Jacksonville (TX) 421.91 422.00 -0.09 1/23/2020  12:00 AM
JB Thomas (TX) 2,228.80 2,258.00 -29.20 1/24/2020  1:45 AM
Jim Chapman (TX) 439.10 440.00 -0.90 1/23/2020  9:50 AM
Joe Pool (TX) 519.51 522.00 -2.49 1/24/2020  12:00 AM
Kemp (TX) 1,142.15 1,144.00 -1.85 1/24/2020  1:15 AM
Kickapoo (TX) 1,042.38 1,045.00 -2.62 1/24/2020  2:00 AM
Lake O' the Pines (TX) 228.99 228.50 0.49 1/23/2020  9:50 AM
Lavon (TX) 489.88 492.00 -2.12 1/24/2020  1:00 AM
Leon (TX) 1,372.54 1/24/2020  12:30 AM
Lewisville (TX) 523.96 522.00 1.96 1/24/2020  12:15 AM
Limestone (TX) 359.78 363.00 -3.22 1/24/2020  12:45 AM
Livingston (TX) 131.38 131.00 0.38 1/23/2020  12:00 AM
Lyndon B. Johnson (TX) 820.48 825.00 -4.52 1/23/2020  10:05 AM
MacKenzie (TX) 3,019.67 3,100.00 -80.33 1/24/2020  2:30 AM
Marble Falls (TX) 736.34 737.00 -0.66 1/23/2020  10:05 AM
Martin Creek (TX) 303.10 306.00 -2.90 1/24/2020  2:30 AM
Medina (TX) 1,053.91 1,062.00 -8.09 1/24/2020  1:00 AM
Meredith (TX) 2,889.73 2,941.00 -51.27 1/24/2020  2:30 AM
Mexia (TX) 446.30 448.30 -2.00 1/24/2020  12:15 AM
Millers Creek (TX) 1,332.36 1,334.00 -1.64 1/24/2020  12:00 AM
Mineral Wells (TX) 863.09 863.00 0.09 1/24/2020  8:30 AM
Moss Creek (TX) 2,333.12 2,337.00 -3.88 1/24/2020  2:30 AM
Murvaul (TX) 264.94 265.50 -0.56 1/23/2020  9:50 AM
Nacogdoches (TX) 277.53 279.00 -1.47 1/23/2020  9:50 AM
Natural Dam Salt (TX) 2,447.28 2,457.00 -9.72 1/23/2020  12:00 AM
Navarro Mills (TX) 421.98 424.50 -2.52 1/24/2020  2:00 AM
Nocona (TX) 826.24 827.00 -0.76 1/24/2020  12:00 AM
O. C. Fisher (TX) 1,870.53 1,908.00 -37.47 1/24/2020  12:00 AM
O.H. Ivie (TX) 1,541.69 1,551.50 -9.81 1/24/2020  12:45 AM
Oak Creek (TX) 1,998.05 2,000.00 -1.95 1/23/2020  12:00 AM
Palestine (TX) 344.43 345.00 -0.57 1/24/2020  2:00 AM
Palo Pinto (TX) 863.83 867.00 -3.17 1/24/2020  1:15 AM
Pat Cleburne (TX) 731.05 733.60 -2.55 1/24/2020  1:00 AM
Pat Mayse (TX) 452.05 451.00 1.05 1/23/2020  9:50 AM
Phantom Hill (TX) 1,633.97 1,635.90 -1.93 1/24/2020  1:30 AM
Possum Kingdom (TX) 998.50 1,000.00 -1.50 1/23/2020  11:03 AM
Proctor (TX) 1,158.60 1,162.00 -3.40 1/24/2020  2:30 AM
Ray Hubbard (TX) 433.39 435.50 -2.11 1/24/2020  2:45 AM
Ray Roberts (TX) 634.40 632.50 1.90 1/24/2020  2:15 AM
Red Bluff (TX) 2,819.78 2,827.13 -7.35 1/24/2020  1:15 AM
Richland Chambers (TX) 311.51 315.00 -3.49 1/24/2020  1:45 AM
Sam Rayburn (TX) 163.44 164.40 -0.96 1/24/2020  2:00 AM
Somerville (TX) 237.83 238.00 -0.17 1/24/2020  12:00 AM
Squaw Creek (TX) 774.27 775.00 -0.73 1/24/2020  1:00 AM
Stamford (TX) 1,415.71 1,417.00 -1.29 1/24/2020  12:30 AM
Steinhagen Reservoir (TX) 82.56 82.40 0.16 1/24/2020  1:00 AM
Stillhouse Hollow (TX) 618.53 622.00 -3.47 1/24/2020  2:00 AM
Tawakoni (TX) 436.63 437.50 -0.87 1/24/2020  2:15 AM
Texana (TX) 38.97 44.00 -5.03 1/24/2020  2:00 AM
Texoma (TX) 618.04 617.00 1.04 1/24/2020  2:00 AM
Toledo Bend (TX LA) 166.76 172.00 -5.24 1/24/2020  1:30 AM
Travis (TX) 670.76 681.00 -10.24 1/24/2020  2:00 AM
Twin Buttes (TX) 1,931.75 1,940.00 -8.25 1/23/2020  12:00 AM
Tyler (TX) 374.09 375.50 -1.41 1/23/2020  9:50 AM
Waco (TX) 456.95 462.00 -5.05 1/24/2020  12:15 AM
Waxahachie (TX) 530.71 1/23/2020  12:00 AM
Weatherford (TX) 896.04 896.00 0.04 1/24/2020  1:45 AM
White River (TX) 2,350.13 1/24/2020  2:15 AM
Whitney (TX) 527.11 533.00 -5.89 1/24/2020  2:15 AM
Worth (TX) 592.35 594.00 -1.65 1/24/2020  12:00 AM
Wright Patman (TX) 227.49 220.60 6.89 1/23/2020  9:50 AM


CURRENT DAILY STREAMFLOW CONDITIONS
High
90th percentile
75th - 89th percentile
25th - 74th percentile
10th - 24th percentile
10th percentile
Low
Not ranked

The colored dots on this map depict streamflow conditions as a percentile, which is computed from the period of record for the current day of the year. Only stations with at least 30 years of record are used. The gray circles indicate other stations that were not ranked in percentiles either because they have fewer than 30 years of record or because they report parameters other than streamflow. Some stations, for example, measure stage only.
U.S. Daily Streamflow Conditions



U.S. Drought Monitor